sensor_id;sensor_type;location;lat;lon;timestamp;pressure;altitude;pressure_sealevel;temperature;humidity
19108;BME280;9686;48.832;9.126;2023-05-23T00:00:54;98016.22;;;18.39;nan
19108;BME280;9686;48.832;9.126;2023-05-23T00:03:20;98016.16;;;18.40;nan
19108;BME280;9686;48.832;9.126;2023-05-23T00:05:47;98024.25;;;18.36;nan
19108;BME280;9686;48.832;9.126;2023-05-23T00:08:13;98026.91;;;18.36;nan
19108;BME280;9686;48.832;9.126;2023-05-23T00:10:38;98031.38;;;18.34;nan
19108;BME280;9686;48.832;9.126;2023-05-23T00:13:03;98031.25;;;18.37;nan
19108;BME280;9686;48.832;9.126;2023-05-23T00:15:29;98032.50;;;18.28;nan
19108;BME280;9686;48.832;9.126;2023-05-23T00:17:55;98028.13;;;18.27;nan
19108;BME280;9686;48.832;9.126;2023-05-23T00:20:20;98029.06;;;18.26;nan
19108;BME280;9686;48.832;9.126;2023-05-23T00:22:45;98030.91;;;18.24;nan
19108;BME280;9686;48.832;9.126;2023-05-23T00:25:12;98043.34;;;18.21;nan
19108;BME280;9686;48.832;9.126;2023-05-23T00:27:38;98032.56;;;18.27;nan
19108;BME280;9686;48.832;9.126;2023-05-23T00:30:03;98037.38;;;18.15;nan
19108;BME280;9686;48.832;9.126;2023-05-23T00:32:29;98039.63;;;18.26;nan
19108;BME280;9686;48.832;9.126;2023-05-23T00:34:54;98034.41;;;18.25;nan
19108;BME280;9686;48.832;9.126;2023-05-23T00:37:20;98043.25;;;18.24;nan
19108;BME280;9686;48.832;9.126;2023-05-23T00:39:47;98038.81;;;18.24;nan
19108;BME280;9686;48.832;9.126;2023-05-23T00:42:12;98039.03;;;18.18;nan
19108;BME280;9686;48.832;9.126;2023-05-23T00:44:37;98043.25;;;18.24;nan
19108;BME280;9686;48.832;9.126;2023-05-23T00:47:03;98049.31;;;18.26;nan
19108;BME280;9686;48.832;9.126;2023-05-23T00:49:28;98043.97;;;18.27;nan
19108;BME280;9686;48.832;9.126;2023-05-23T00:51:54;98050.72;;;18.34;nan
19108;BME280;9686;48.832;9.126;2023-05-23T00:54:24;98053.66;;;18.27;nan
19108;BME280;9686;48.832;9.126;2023-05-23T00:56:51;98052.19;;;18.41;nan
19108;BME280;9686;48.832;9.126;2023-05-23T00:59:17;98055.69;;;18.42;nan
19108;BME280;9686;48.832;9.126;2023-05-23T01:01:45;98061.59;;;18.48;nan
19108;BME280;9686;48.832;9.126;2023-05-23T01:04:12;98058.09;;;18.48;nan
19108;BME280;9686;48.832;9.126;2023-05-23T01:06:38;98065.03;;;18.51;nan
19108;BME280;9686;48.832;9.126;2023-05-23T01:09:04;98062.69;;;18.43;nan
19108;BME280;9686;48.832;9.126;2023-05-23T01:11:53;98055.69;;;18.42;nan
19108;BME280;9686;48.832;9.126;2023-05-23T01:14:27;98054.09;;;18.38;nan
19108;BME280;9686;48.832;9.126;2023-05-23T01:16:59;98061.41;;;18.31;nan
19108;BME280;9686;48.832;9.126;2023-05-23T01:19:38;98064.03;;;18.31;nan
19108;BME280;9686;48.832;9.126;2023-05-23T01:22:20;98060.59;;;18.29;nan
19108;BME280;9686;48.832;9.126;2023-05-23T01:24:53;98064.09;;;18.30;nan
19108;BME280;9686;48.832;9.126;2023-05-23T01:27:45;98063.38;;;18.26;nan
19108;BME280;9686;48.832;9.126;2023-05-23T01:30:12;98072.09;;;18.28;nan
19108;BME280;9686;48.832;9.126;2023-05-23T01:32:42;98055.66;;;18.20;nan
19108;BME280;9686;48.832;9.126;2023-05-23T01:35:08;98063.38;;;18.26;nan
19108;BME280;9686;48.832;9.126;2023-05-23T01:37:34;98060.84;;;18.23;nan
19108;BME280;9686;48.832;9.126;2023-05-23T01:40:00;98064.28;;;18.25;nan
19108;BME280;9686;48.832;9.126;2023-05-23T01:42:25;98060.47;;;18.32;nan
19108;BME280;9686;48.832;9.126;2023-05-23T01:44:52;98059.13;;;18.22;nan
19108;BME280;9686;48.832;9.126;2023-05-23T01:47:17;98054.88;;;18.18;nan
19108;BME280;9686;48.832;9.126;2023-05-23T01:49:44;98070.75;;;18.16;nan
19108;BME280;9686;48.832;9.126;2023-05-23T01:52:10;98072.41;;;18.19;nan
19108;BME280;9686;48.832;9.126;2023-05-23T01:54:36;98068.31;;;18.12;nan
19108;BME280;9686;48.832;9.126;2023-05-23T01:57:04;98066.53;;;18.12;nan
19108;BME280;9686;48.832;9.126;2023-05-23T01:59:29;98071.88;;;18.11;nan
19108;BME280;9686;48.832;9.126;2023-05-23T02:01:55;98074.69;;;18.06;nan
19108;BME280;9686;48.832;9.126;2023-05-23T02:04:20;98068.63;;;18.04;nan
19108;BME280;9686;48.832;9.126;2023-05-23T02:06:45;98069.41;;;18.06;nan
19108;BME280;9686;48.832;9.126;2023-05-23T02:09:11;98072.91;;;18.06;nan
19108;BME280;9686;48.832;9.126;2023-05-23T02:11:36;98061.38;;;18.09;nan
19108;BME280;9686;48.832;9.126;2023-05-23T02:14:02;98067.50;;;18.10;nan
19108;BME280;9686;48.832;9.126;2023-05-23T02:16:27;98066.72;;;18.08;nan
19108;BME280;9686;48.832;9.126;2023-05-23T02:18:52;98062.91;;;18.15;nan
19108;BME280;9686;48.832;9.126;2023-05-23T02:21:21;98068.38;;;18.10;nan
19108;BME280;9686;48.832;9.126;2023-05-23T02:23:46;98067.69;;;18.05;nan
19108;BME280;9686;48.832;9.126;2023-05-23T02:26:11;98078.19;;;18.07;nan
19108;BME280;9686;48.832;9.126;2023-05-23T02:28:37;98067.50;;;18.10;nan
19108;BME280;9686;48.832;9.126;2023-05-23T02:31:02;98069.34;;;18.08;nan
19108;BME280;9686;48.832;9.126;2023-05-23T02:33:27;98068.50;;;18.07;nan
19108;BME280;9686;48.832;9.126;2023-05-23T02:35:53;98075.84;;;17.99;nan
19108;BME280;9686;48.832;9.126;2023-05-23T02:38:19;98075.03;;;17.97;nan
19108;BME280;9686;48.832;9.126;2023-05-23T02:40:44;98080.25;;;17.99;nan
19108;BME280;9686;48.832;9.126;2023-05-23T02:43:10;98077.50;;;18.02;nan
19108;BME280;9686;48.832;9.126;2023-05-23T02:45:35;98082.84;;;18.00;nan
19108;BME280;9686;48.832;9.126;2023-05-23T02:48:00;98083.69;;;18.01;nan
19108;BME280;9686;48.832;9.126;2023-05-23T02:50:25;98076.66;;;18.01;nan
19108;BME280;9686;48.832;9.126;2023-05-23T02:52:51;98083.03;;;17.94;nan
19108;BME280;9686;48.832;9.126;2023-05-23T02:55:16;98084.75;;;17.95;nan
19108;BME280;9686;48.832;9.126;2023-05-23T02:57:41;98086.72;;;17.90;nan
19108;BME280;9686;48.832;9.126;2023-05-23T03:00:07;98082.44;;;17.87;nan
19108;BME280;9686;48.832;9.126;2023-05-23T03:02:34;98084.09;;;17.90;nan
19108;BME280;9686;48.832;9.126;2023-05-23T03:04:59;98092.75;;;17.94;nan
19108;BME280;9686;48.832;9.126;2023-05-23T03:07:25;98094.63;;;17.90;nan
19108;BME280;9686;48.832;9.126;2023-05-23T03:09:51;98096.22;;;17.94;nan
19108;BME280;9686;48.832;9.126;2023-05-23T03:12:16;98091.72;;;17.98;nan
19108;BME280;9686;48.832;9.126;2023-05-23T03:14:41;98094.31;;;17.99;nan
19108;BME280;9686;48.832;9.126;2023-05-23T03:17:07;98095.06;;;18.03;nan
19108;BME280;9686;48.832;9.126;2023-05-23T03:19:32;98094.31;;;17.99;nan
19108;BME280;9686;48.832;9.126;2023-05-23T03:21:57;98094.31;;;17.99;nan
19108;BME280;9686;48.832;9.126;2023-05-23T03:24:23;98094.31;;;17.99;nan
19108;BME280;9686;48.832;9.126;2023-05-23T03:26:48;98094.31;;;17.99;nan
19108;BME280;9686;48.832;9.126;2023-05-23T03:58:20;98109.88;;;18.29;nan
19108;BME280;9686;48.832;9.126;2023-05-23T04:00:46;98088.19;;;18.66;nan
19108;BME280;9686;48.832;9.126;2023-05-23T04:03:11;98089.34;;;18.59;nan
19108;BME280;9686;48.832;9.126;2023-05-23T04:05:39;98091.56;;;18.69;nan
19108;BME280;9686;48.832;9.126;2023-05-23T04:08:05;98089.19;;;18.63;nan
19108;BME280;9686;48.832;9.126;2023-05-23T04:10:30;98096.97;;;18.66;nan
19108;BME280;9686;48.832;9.126;2023-05-23T04:12:56;98095.88;;;18.72;nan
19108;BME280;9686;48.832;9.126;2023-05-23T04:15:21;98092.25;;;18.74;nan
19108;BME280;9686;48.832;9.126;2023-05-23T04:17:46;98091.41;;;18.74;nan
19108;BME280;9686;48.832;9.126;2023-05-23T04:20:12;98096.72;;;18.72;nan
19108;BME280;9686;48.832;9.126;2023-05-23T04:22:37;98094.06;;;18.72;nan
19108;BME280;9686;48.832;9.126;2023-05-23T04:25:03;98088.56;;;18.78;nan
19108;BME280;9686;48.832;9.126;2023-05-23T04:27:28;98093.91;;;18.77;nan
19108;BME280;9686;48.832;9.126;2023-05-23T04:29:55;98102.50;;;18.82;nan
19108;BME280;9686;48.832;9.126;2023-05-23T04:32:22;98100.84;;;18.79;nan
19108;BME280;9686;48.832;9.126;2023-05-23T04:34:47;98099.00;;;18.82;nan
19108;BME280;9686;48.832;9.126;2023-05-23T04:37:13;98106.88;;;18.83;nan
19108;BME280;9686;48.832;9.126;2023-05-23T04:39:39;98110.69;;;18.76;nan
19108;BME280;9686;48.832;9.126;2023-05-23T04:42:04;98111.53;;;18.76;nan
19108;BME280;9686;48.832;9.126;2023-05-23T04:44:31;98111.47;;;18.78;nan
19108;BME280;9686;48.832;9.126;2023-05-23T04:46:57;98109.69;;;18.78;nan
19108;BME280;9686;48.832;9.126;2023-05-23T04:49:23;98113.06;;;18.82;nan
19108;BME280;9686;48.832;9.126;2023-05-23T04:51:48;98116.38;;;18.87;nan
19108;BME280;9686;48.832;9.126;2023-05-23T04:54:14;98119.34;;;18.79;nan
19108;BME280;9686;48.832;9.126;2023-05-23T04:56:39;98125.47;;;18.80;nan
19108;BME280;9686;48.832;9.126;2023-05-23T04:59:04;98123.50;;;18.85;nan
19108;BME280;9686;48.832;9.126;2023-05-23T05:01:32;98125.84;;;18.93;nan
19108;BME280;9686;48.832;9.126;2023-05-23T05:03:58;98125.03;;;18.91;nan
19108;BME280;9686;48.832;9.126;2023-05-23T05:06:23;98131.91;;;18.95;nan
19108;BME280;9686;48.832;9.126;2023-05-23T05:08:49;98132.63;;;18.98;nan
19108;BME280;9686;48.832;9.126;2023-05-23T05:11:14;98127.75;;;18.89;nan
19108;BME280;9686;48.832;9.126;2023-05-23T05:13:39;98130.84;;;18.99;nan
19108;BME280;9686;48.832;9.126;2023-05-23T05:16:05;98134.63;;;18.93;nan
19108;BME280;9686;48.832;9.126;2023-05-23T05:18:30;98128.34;;;18.96;nan
19108;BME280;9686;48.832;9.126;2023-05-23T05:20:56;98131.13;;;18.93;nan
19108;BME280;9686;48.832;9.126;2023-05-23T05:23:25;98133.94;;;18.88;nan
19108;BME280;9686;48.832;9.126;2023-05-23T05:25:54;98134.56;;;18.95;nan
19108;BME280;9686;48.832;9.126;2023-05-23T05:28:20;98142.25;;;19.01;nan
19108;BME280;9686;48.832;9.126;2023-05-23T05:30:46;98142.41;;;18.96;nan
19108;BME280;9686;48.832;9.126;2023-05-23T05:33:12;98142.19;;;19.02;nan
19108;BME280;9686;48.832;9.126;2023-05-23T05:35:37;98138.00;;;18.97;nan
19108;BME280;9686;48.832;9.126;2023-05-23T05:38:03;98135.13;;;19.03;nan
19108;BME280;9686;48.832;9.126;2023-05-23T05:40:30;98130.38;;;19.11;nan
19108;BME280;9686;48.832;9.126;2023-05-23T05:42:55;98131.13;;;19.35;nan
19108;BME280;9686;48.832;9.126;2023-05-23T05:45:20;98133.09;;;19.30;nan
19108;BME280;9686;48.832;9.126;2023-05-23T05:47:45;98124.31;;;19.29;nan
19108;BME280;9686;48.832;9.126;2023-05-23T05:50:11;98135.69;;;19.31;nan
19108;BME280;9686;48.832;9.126;2023-05-23T05:52:37;98128.72;;;19.49;nan
19108;BME280;9686;48.832;9.126;2023-05-23T05:55:06;98128.34;;;19.38;nan
19108;BME280;9686;48.832;9.126;2023-05-23T05:57:32;98135.66;;;19.53;nan
19108;BME280;9686;48.832;9.126;2023-05-23T05:59:58;98134.88;;;19.50;nan
19108;BME280;9686;48.832;9.126;2023-05-23T06:02:23;98143.38;;;19.58;nan
19108;BME280;9686;48.832;9.126;2023-05-23T06:04:48;98131.16;;;19.55;nan
19108;BME280;9686;48.832;9.126;2023-05-23T06:07:14;98144.38;;;19.55;nan
19108;BME280;9686;48.832;9.126;2023-05-23T06:09:39;98137.97;;;19.61;nan
19108;BME280;9686;48.832;9.126;2023-05-23T06:12:05;98133.41;;;19.64;nan
19108;BME280;9686;48.832;9.126;2023-05-23T06:14:30;98138.91;;;19.60;nan
19108;BME280;9686;48.832;9.126;2023-05-23T06:16:55;98138.53;;;19.67;nan
19108;BME280;9686;48.832;9.126;2023-05-23T06:19:20;98148.81;;;19.55;nan
19108;BME280;9686;48.832;9.126;2023-05-23T06:21:46;98141.84;;;19.52;nan
19108;BME280;9686;48.832;9.126;2023-05-23T06:24:11;98144.19;;;19.38;nan
19108;BME280;9686;48.832;9.126;2023-05-23T06:26:36;98143.22;;;19.40;nan
19108;BME280;9686;48.832;9.126;2023-05-23T06:29:03;98151.72;;;19.47;nan
19108;BME280;9686;48.832;9.126;2023-05-23T06:31:28;98153.13;;;19.35;nan
19108;BME280;9686;48.832;9.126;2023-05-23T06:33:53;98150.28;;;19.40;nan
19108;BME280;9686;48.832;9.126;2023-05-23T06:36:19;98157.56;;;19.35;nan
19108;BME280;9686;48.832;9.126;2023-05-23T06:38:44;98163.09;;;19.29;nan
19108;BME280;9686;48.832;9.126;2023-05-23T06:41:11;98169.63;;;19.20;nan
19108;BME280;9686;48.832;9.126;2023-05-23T06:43:36;98186.84;;;19.30;nan
19108;BME280;9686;48.832;9.126;2023-05-23T06:46:02;98173.91;;;19.23;nan
19108;BME280;9686;48.832;9.126;2023-05-23T06:48:27;98173.84;;;19.24;nan
19108;BME280;9686;48.832;9.126;2023-05-23T06:50:52;98176.50;;;19.24;nan
19108;BME280;9686;48.832;9.126;2023-05-23T06:53:18;98182.91;;;19.19;nan
19108;BME280;9686;48.832;9.126;2023-05-23T06:55:43;98181.97;;;19.20;nan
19108;BME280;9686;48.832;9.126;2023-05-23T06:58:08;98183.56;;;19.24;nan
19108;BME280;9686;48.832;9.126;2023-05-23T07:00:33;98196.38;;;19.13;nan
19108;BME280;9686;48.832;9.126;2023-05-23T07:02:59;98193.91;;;19.08;nan
19108;BME280;9686;48.832;9.126;2023-05-23T07:05:27;98196.63;;;19.06;nan
19108;BME280;9686;48.832;9.126;2023-05-23T07:07:52;98190.09;;;19.15;nan
19108;BME280;9686;48.832;9.126;2023-05-23T07:10:18;98195.44;;;19.14;nan
19108;BME280;9686;48.832;9.126;2023-05-23T07:12:44;98202.13;;;19.22;nan
19108;BME280;9686;48.832;9.126;2023-05-23T07:15:10;98206.69;;;19.19;nan
19108;BME280;9686;48.832;9.126;2023-05-23T07:17:35;98203.69;;;19.28;nan
19108;BME280;9686;48.832;9.126;2023-05-23T07:20:01;98200.66;;;19.15;nan
19108;BME280;9686;48.832;9.126;2023-05-23T07:22:27;98203.69;;;19.06;nan
19108;BME280;9686;48.832;9.126;2023-05-23T07:24:52;98205.41;;;19.07;nan
19108;BME280;9686;48.832;9.126;2023-05-23T07:27:17;98213.69;;;18.98;nan
19108;BME280;9686;48.832;9.126;2023-05-23T07:29:42;98206.69;;;18.97;nan
19108;BME280;9686;48.832;9.126;2023-05-23T07:32:08;98210.63;;;18.87;nan
19108;BME280;9686;48.832;9.126;2023-05-23T07:34:33;98211.59;;;18.84;nan
19108;BME280;9686;48.832;9.126;2023-05-23T07:36:58;98220.19;;;18.89;nan
19108;BME280;9686;48.832;9.126;2023-05-23T07:39:23;98217.81;;;18.83;nan
19108;BME280;9686;48.832;9.126;2023-05-23T07:41:49;98218.66;;;18.84;nan
19108;BME280;9686;48.832;9.126;2023-05-23T07:44:17;98219.22;;;18.92;nan
19108;BME280;9686;48.832;9.126;2023-05-23T07:46:43;98215.72;;;18.91;nan
19108;BME280;9686;48.832;9.126;2023-05-23T07:49:08;98210.38;;;19.15;nan
19108;BME280;9686;48.832;9.126;2023-05-23T07:51:33;98210.63;;;19.30;nan
19108;BME280;9686;48.832;9.126;2023-05-23T07:53:58;98207.78;;;19.35;nan
19108;BME280;9686;48.832;9.126;2023-05-23T07:56:24;98209.25;;;19.42;nan
19108;BME280;9686;48.832;9.126;2023-05-23T07:58:50;98205.94;;;19.37;nan
19108;BME280;9686;48.832;9.126;2023-05-23T08:01:15;98215.22;;;19.25;nan
19108;BME280;9686;48.832;9.126;2023-05-23T08:03:42;98219.41;;;19.31;nan
19108;BME280;9686;48.832;9.126;2023-05-23T08:06:07;98222.84;;;19.33;nan
19108;BME280;9686;48.832;9.126;2023-05-23T08:08:33;98222.59;;;19.39;nan
19108;BME280;9686;48.832;9.126;2023-05-23T08:10:58;98225.25;;;19.39;nan
19108;BME280;9686;48.832;9.126;2023-05-23T08:13:24;98221.47;;;19.45;nan
19108;BME280;9686;48.832;9.126;2023-05-23T08:15:49;98228.66;;;19.41;nan
19108;BME280;9686;48.832;9.126;2023-05-23T08:18:15;98235.56;;;19.23;nan
19108;BME280;9686;48.832;9.126;2023-05-23T08:20:40;98223.72;;;19.12;nan
19108;BME280;9686;48.832;9.126;2023-05-23T08:23:06;98230.28;;;19.23;nan
19108;BME280;9686;48.832;9.126;2023-05-23T08:25:31;98239.63;;;19.10;nan
19108;BME280;9686;48.832;9.126;2023-05-23T08:27:57;98232.50;;;19.12;nan
19108;BME280;9686;48.832;9.126;2023-05-23T08:30:24;98232.31;;;19.17;nan
19108;BME280;9686;48.832;9.126;2023-05-23T08:32:53;98229.72;;;19.15;nan
19108;BME280;9686;48.832;9.126;2023-05-23T08:35:19;98243.19;;;19.09;nan
19108;BME280;9686;48.832;9.126;2023-05-23T08:37:45;98242.03;;;19.16;nan
19108;BME280;9686;48.832;9.126;2023-05-23T08:40:21;98249.75;;;18.99;nan
19108;BME280;9686;48.832;9.126;2023-05-23T08:42:50;98247.97;;;18.99;nan
19108;BME280;9686;48.832;9.126;2023-05-23T08:45:16;98250.50;;;18.81;nan
19108;BME280;9686;48.832;9.126;2023-05-23T08:47:43;98257.13;;;18.91;nan
19108;BME280;9686;48.832;9.126;2023-05-23T08:50:13;98254.88;;;19.03;nan
19108;BME280;9686;48.832;9.126;2023-05-23T08:52:56;98261.50;;;19.14;nan
19108;BME280;9686;48.832;9.126;2023-05-23T08:55:23;98263.53;;;19.07;nan
19108;BME280;9686;48.832;9.126;2023-05-23T08:57:51;98267.84;;;19.09;nan
19108;BME280;9686;48.832;9.126;2023-05-23T09:00:17;98262.94;;;19.00;nan
19108;BME280;9686;48.832;9.126;2023-05-23T09:02:44;98269.56;;;19.10;nan
19108;BME280;9686;48.832;9.126;2023-05-23T09:05:10;98272.63;;;19.00;nan
19108;BME280;9686;48.832;9.126;2023-05-23T09:07:36;98268.09;;;19.03;nan
19108;BME280;9686;48.832;9.126;2023-05-23T09:10:05;98271.28;;;19.12;nan
19108;BME280;9686;48.832;9.126;2023-05-23T09:12:35;98272.56;;;19.01;nan
19108;BME280;9686;48.832;9.126;2023-05-23T09:15:05;98277.94;;;19.00;nan
19108;BME280;9686;48.832;9.126;2023-05-23T09:17:32;98275.44;;;18.95;nan
19108;BME280;9686;48.832;9.126;2023-05-23T09:19:58;98277.63;;;18.84;nan
19108;BME280;9686;48.832;9.126;2023-05-23T09:22:24;98277.69;;;19.06;nan
19108;BME280;9686;48.832;9.126;2023-05-23T09:24:51;98278.47;;;19.08;nan
19108;BME280;9686;48.832;9.126;2023-05-23T09:27:17;98281.78;;;19.13;nan
19108;BME280;9686;48.832;9.126;2023-05-23T09:29:42;98278.97;;;19.18;nan
19108;BME280;9686;48.832;9.126;2023-05-23T09:32:15;98282.78;;;19.32;nan
19108;BME280;9686;48.832;9.126;2023-05-23T09:34:41;98276.31;;;19.39;nan
19108;BME280;9686;48.832;9.126;2023-05-23T09:37:07;98275.28;;;19.65;nan
19108;BME280;9686;48.832;9.126;2023-05-23T09:39:36;98270.69;;;19.91;nan
19108;BME280;9686;48.832;9.126;2023-05-23T09:42:01;98274.66;;;20.01;nan
19108;BME280;9686;48.832;9.126;2023-05-23T09:44:27;98270.69;;;20.11;nan
19108;BME280;9686;48.832;9.126;2023-05-23T09:46:52;98274.06;;;20.15;nan
19108;BME280;9686;48.832;9.126;2023-05-23T09:49:18;98279.69;;;20.27;nan
19108;BME280;9686;48.832;9.126;2023-05-23T09:51:45;98277.03;;;20.27;nan
19108;BME280;9686;48.832;9.126;2023-05-23T09:54:20;98272.94;;;20.20;nan
19108;BME280;9686;48.832;9.126;2023-05-23T09:56:46;98270.94;;;20.25;nan
19108;BME280;9686;48.832;9.126;2023-05-23T09:59:12;98272.09;;;20.40;nan
19108;BME280;9686;48.832;9.126;2023-05-23T10:01:41;98276.50;;;20.40;nan
19108;BME280;9686;48.832;9.126;2023-05-23T10:04:09;98272.03;;;20.42;nan
19108;BME280;9686;48.832;9.126;2023-05-23T10:06:44;98268.38;;;20.44;nan
19108;BME280;9686;48.832;9.126;2023-05-23T10:09:15;98264.00;;;20.43;nan
19108;BME280;9686;48.832;9.126;2023-05-23T10:14:37;98263.81;;;20.48;nan
19108;BME280;9686;48.832;9.126;2023-05-23T10:17:12;98271.78;;;20.67;nan
19108;BME280;9686;48.832;9.126;2023-05-23T10:19:46;98276.97;;;20.88;nan
19108;BME280;9686;48.832;9.126;2023-05-23T10:22:13;98264.19;;;20.97;nan
19108;BME280;9686;48.832;9.126;2023-05-23T10:24:40;98266.22;;;20.91;nan
19108;BME280;9686;48.832;9.126;2023-05-23T10:27:06;98268.13;;;21.07;nan
19108;BME280;9686;48.832;9.126;2023-05-23T10:29:32;98273.38;;;21.08;nan
19108;BME280;9686;48.832;9.126;2023-05-23T10:32:01;98287.69;;;21.04;nan
19108;BME280;9686;48.832;9.126;2023-05-23T10:37:20;98280.31;;;20.73;nan
19108;BME280;9686;48.832;9.126;2023-05-23T10:43:02;98278.59;;;20.72;nan
19108;BME280;9686;48.832;9.126;2023-05-23T10:45:38;98274.59;;;20.82;nan
19108;BME280;9686;48.832;9.126;2023-05-23T10:48:19;98271.50;;;20.91;nan
19108;BME280;9686;48.832;9.126;2023-05-23T10:50:45;98271.50;;;21.10;nan
19108;BME280;9686;48.832;9.126;2023-05-23T10:53:15;98268.78;;;21.31;nan
19108;BME280;9686;48.832;9.126;2023-05-23T10:55:40;98268.28;;;21.41;nan
19108;BME280;9686;48.832;9.126;2023-05-23T10:58:17;98271.41;;;21.49;nan
19108;BME280;9686;48.832;9.126;2023-05-23T11:00:55;98278.19;;;21.38;nan
19108;BME280;9686;48.832;9.126;2023-05-23T11:06:27;98270.63;;;21.47;nan
19108;BME280;9686;48.832;9.126;2023-05-23T11:09:01;98278.19;;;21.55;nan
19108;BME280;9686;48.832;9.126;2023-05-23T11:14:19;98276.56;;;21.52;nan
19108;BME280;9686;48.832;9.126;2023-05-23T11:16:55;98279.28;;;21.51;nan
19108;BME280;9686;48.832;9.126;2023-05-23T11:19:25;98283.84;;;21.66;nan
19108;BME280;9686;48.832;9.126;2023-05-23T11:21:58;98290.16;;;21.64;nan
19108;BME280;9686;48.832;9.126;2023-05-23T11:24:50;98293.56;;;21.48;nan
19108;BME280;9686;48.832;9.126;2023-05-23T11:27:26;98292.47;;;21.52;nan
19108;BME280;9686;48.832;9.126;2023-05-23T11:29:56;98297.28;;;21.63;nan
19108;BME280;9686;48.832;9.126;2023-05-23T11:32:22;98289.84;;;21.70;nan
19108;BME280;9686;48.832;9.126;2023-05-23T11:34:48;98289.78;;;21.71;nan
19108;BME280;9686;48.832;9.126;2023-05-23T11:37:14;98289.69;;;21.73;nan
19108;BME280;9686;48.832;9.126;2023-05-23T11:39:39;98287.34;;;21.67;nan
19108;BME280;9686;48.832;9.126;2023-05-23T11:42:04;98292.91;;;21.79;nan
19108;BME280;9686;48.832;9.126;2023-05-23T11:44:30;98285.50;;;22.03;nan
19108;BME280;9686;48.832;9.126;2023-05-23T11:47:01;98282.25;;;22.15;nan
19108;BME280;9686;48.832;9.126;2023-05-23T11:49:34;98285.13;;;22.28;nan
19108;BME280;9686;48.832;9.126;2023-05-23T11:52:01;98285.81;;;22.32;nan
19108;BME280;9686;48.832;9.126;2023-05-23T11:54:27;98277.50;;;22.55;nan
19108;BME280;9686;48.832;9.126;2023-05-23T11:56:53;98274.31;;;22.49;nan
19108;BME280;9686;48.832;9.126;2023-05-23T11:59:20;98279.88;;;22.27;nan
19108;BME280;9686;48.832;9.126;2023-05-23T12:01:45;98280.38;;;22.18;nan
19108;BME280;9686;48.832;9.126;2023-05-23T12:04:11;98282.78;;;22.05;nan
19108;BME280;9686;48.832;9.126;2023-05-23T12:06:40;98267.78;;;22.04;nan
19108;BME280;9686;48.832;9.126;2023-05-23T12:09:11;98271.53;;;22.00;nan
19108;BME280;9686;48.832;9.126;2023-05-23T12:11:38;98269.09;;;22.30;nan
19108;BME280;9686;48.832;9.126;2023-05-23T12:14:05;98266.59;;;22.44;nan
19108;BME280;9686;48.832;9.126;2023-05-23T12:16:34;98264.50;;;22.66;nan
19108;BME280;9686;48.832;9.126;2023-05-23T12:19:01;98256.44;;;22.68;nan
19108;BME280;9686;48.832;9.126;2023-05-23T12:21:47;98260.22;;;22.80;nan
19108;BME280;9686;48.832;9.126;2023-05-23T12:24:14;98253.03;;;22.66;nan
19108;BME280;9686;48.832;9.126;2023-05-23T12:26:53;98258.88;;;22.55;nan
19108;BME280;9686;48.832;9.126;2023-05-23T12:29:33;98265.66;;;22.61;nan
19108;BME280;9686;48.832;9.126;2023-05-23T12:32:02;98257.22;;;22.70;nan
19108;BME280;9686;48.832;9.126;2023-05-23T12:34:28;98262.53;;;22.70;nan
19108;BME280;9686;48.832;9.126;2023-05-23T12:36:58;98267.34;;;22.79;nan
19108;BME280;9686;48.832;9.126;2023-05-23T12:39:29;98261.22;;;22.94;nan
19108;BME280;9686;48.832;9.126;2023-05-23T12:42:10;98257.44;;;22.98;nan
19108;BME280;9686;48.832;9.126;2023-05-23T12:44:35;98254.69;;;22.84;nan
19108;BME280;9686;48.832;9.126;2023-05-23T12:47:02;98247.09;;;22.76;nan
19108;BME280;9686;48.832;9.126;2023-05-23T12:49:28;98245.00;;;22.83;nan
19108;BME280;9686;48.832;9.126;2023-05-23T12:51:53;98240.72;;;22.63;nan
19108;BME280;9686;48.832;9.126;2023-05-23T12:54:19;98244.59;;;22.58;nan
19108;BME280;9686;48.832;9.126;2023-05-23T12:56:45;98237.88;;;22.51;nan
19108;BME280;9686;48.832;9.126;2023-05-23T12:59:11;98231.41;;;22.72;nan
19108;BME280;9686;48.832;9.126;2023-05-23T13:01:36;98235.31;;;22.98;nan
19108;BME280;9686;48.832;9.126;2023-05-23T13:04:02;98237.69;;;23.34;nan
19108;BME280;9686;48.832;9.126;2023-05-23T13:06:28;98238.22;;;23.25;nan
19108;BME280;9686;48.832;9.126;2023-05-23T13:08:54;98231.97;;;23.10;nan
19108;BME280;9686;48.832;9.126;2023-05-23T13:11:23;98233.69;;;22.95;nan
19108;BME280;9686;48.832;9.126;2023-05-23T13:13:50;98234.81;;;22.91;nan
19108;BME280;9686;48.832;9.126;2023-05-23T13:16:16;98228.84;;;22.70;nan
19108;BME280;9686;48.832;9.126;2023-05-23T13:18:43;98237.28;;;22.45;nan
19108;BME280;9686;48.832;9.126;2023-05-23T13:21:09;98246.81;;;22.32;nan
19108;BME280;9686;48.832;9.126;2023-05-23T13:23:36;98239.97;;;22.11;nan
19108;BME280;9686;48.832;9.126;2023-05-23T13:26:04;98244.03;;;22.01;nan
19108;BME280;9686;48.832;9.126;2023-05-23T13:28:31;98243.50;;;21.94;nan
19108;BME280;9686;48.832;9.126;2023-05-23T13:30:58;98246.59;;;22.02;nan
19108;BME280;9686;48.832;9.126;2023-05-23T13:33:24;98251.41;;;22.13;nan
19108;BME280;9686;48.832;9.126;2023-05-23T13:35:50;98245.69;;;22.21;nan
19108;BME280;9686;48.832;9.126;2023-05-23T13:38:17;98246.22;;;22.27;nan
19108;BME280;9686;48.832;9.126;2023-05-23T13:40:43;98238.69;;;22.35;nan
19108;BME280;9686;48.832;9.126;2023-05-23T13:43:09;98247.41;;;22.22;nan
19108;BME280;9686;48.832;9.126;2023-05-23T13:45:35;98248.97;;;22.26;nan
19108;BME280;9686;48.832;9.126;2023-05-23T13:48:01;98254.56;;;22.37;nan
19108;BME280;9686;48.832;9.126;2023-05-23T13:50:27;98257.16;;;22.21;nan
19108;BME280;9686;48.832;9.126;2023-05-23T13:52:52;98257.66;;;22.12;nan
19108;BME280;9686;48.832;9.126;2023-05-23T13:55:18;98253.63;;;22.03;nan
19108;BME280;9686;48.832;9.126;2023-05-23T13:57:44;98253.22;;;22.12;nan
19108;BME280;9686;48.832;9.126;2023-05-23T14:00:10;98252.28;;;22.13;nan
19108;BME280;9686;48.832;9.126;2023-05-23T14:02:36;98246.78;;;22.17;nan
19108;BME280;9686;48.832;9.126;2023-05-23T14:05:02;98245.94;;;22.16;nan
19108;BME280;9686;48.832;9.126;2023-05-23T14:07:29;98244.59;;;22.25;nan
19108;BME280;9686;48.832;9.126;2023-05-23T14:09:55;98233.78;;;22.45;nan
19108;BME280;9686;48.832;9.126;2023-05-23T14:12:21;98236.03;;;22.68;nan
19108;BME280;9686;48.832;9.126;2023-05-23T14:14:47;98235.78;;;22.73;nan